Time;durP1;ratioP1;P1;durP2;ratioP2;P2;SDS_P1;SDS_P2;PMS_P1;PMS_P2;Temp;Humidity;BMP_temperature;BMP_pressure;BME280_temperature;BME280_humidity;BME280_pressure;Samples;Min_cycle;Max_cycle;Signal;HPM_P1;HPM_P2
2022/01/06 00:01:58;;;;;;;4.55;3.15;;;;;;;4.85;79.03;99875.94;5072782;28;20080;-55
2022/01/06 00:04:26;;;;;;;15.40;4.40;;;;;;;4.84;78.71;99875.84;5073535;28;20115;-55
2022/01/06 00:06:54;;;;;;;5.45;3.08;;;;;;;4.86;79.19;99879.34;5073416;28;20124;-55
2022/01/06 00:09:22;;;;;;;5.32;3.03;;;;;;;4.85;78.64;99878.50;5055941;28;20075;-55
2022/01/06 00:11:47;;;;;;;3.85;3.33;;;;;;;4.87;79.27;99878.53;5055804;28;20037;-55
2022/01/06 00:14:35;;;;;;;3.95;2.60;;;;;;;4.88;79.26;99877.72;5073647;28;20399;-55
2022/01/06 00:25:20;;;;;;;10.60;3.45;;;;;;;4.85;78.38;99877.59;5073474;28;20037;-55
2022/01/06 00:27:53;;;;;;;4.35;2.72;;;;;;;4.86;79.32;99882.81;5072417;28;20044;-55
2022/01/06 00:30:21;;;;;;;4.72;3.40;;;;;;;4.86;79.22;99887.94;5074142;28;20028;-55
2022/01/06 00:32:49;;;;;;;6.80;3.10;;;;;;;4.87;78.77;99896.50;5055994;28;20059;-55
2022/01/06 00:35:15;;;;;;;4.85;3.38;;;;;;;4.87;79.46;99897.41;5073607;28;20040;-55
2022/01/06 00:37:43;;;;;;;4.25;2.80;;;;;;;4.87;79.34;99907.69;5073558;28;20398;-55
2022/01/06 00:40:11;;;;;;;6.75;3.83;;;;;;;4.87;78.91;99897.41;5055415;28;20090;-55
2022/01/06 00:42:41;;;;;;;9.15;3.47;;;;;;;4.88;78.53;99893.13;5055697;28;20071;-55
2022/01/06 00:45:10;;;;;;;5.40;3.30;;;;;;;4.88;79.23;99896.59;5072169;28;20041;-55
2022/01/06 00:47:37;;;;;;;9.23;3.67;;;;;;;4.84;79.22;99891.25;5072257;28;20527;-55
2022/01/06 00:50:04;;;;;;;12.55;4.40;;;;;;;4.85;79.19;99887.88;5055297;28;20043;-55
2022/01/06 00:52:35;;;;;;;5.40;3.70;;;;;;;4.86;79.61;99892.19;5055528;28;20077;-55
2022/01/06 00:55:00;;;;;;;7.80;3.78;;;;;;;4.87;79.24;99892.28;5055365;28;20545;-55
2022/01/06 00:57:34;;;;;;;11.95;4.18;;;;;;;4.86;79.00;99890.53;5071966;28;20033;-55
2022/01/06 01:00:04;;;;;;;10.95;4.43;;;;;;;4.86;79.04;99905.94;5072190;28;20051;-55
2022/01/06 01:02:32;;;;;;;15.18;3.55;;;;;;;4.87;79.00;99905.09;5076669;28;20045;-55
2022/01/06 01:05:03;;;;;;;9.65;3.95;;;;;;;4.87;79.25;99902.53;5076170;28;20040;-55
2022/01/06 01:07:34;;;;;;;9.88;4.03;;;;;;;4.86;78.78;99905.03;5076486;28;20127;-55
2022/01/06 01:10:02;;;;;;;8.57;3.85;;;;;;;4.86;78.95;99918.78;5076105;28;20036;-55
2022/01/06 01:12:29;;;;;;;6.47;3.40;;;;;;;4.85;79.02;99918.69;5077287;28;20045;-56
2022/01/06 01:15:05;;;;;;;8.48;4.07;;;;;;;4.85;79.39;99918.69;5077223;28;20036;-55
2022/01/06 01:17:35;;;;;;;13.50;4.35;;;;;;;4.86;79.17;99930.72;5059534;28;20052;-55
2022/01/06 01:20:03;;;;;;;8.02;4.00;;;;;;;4.86;79.56;99930.72;5076634;28;20068;-55
2022/01/06 01:22:34;;;;;;;15.38;4.88;;;;;;;4.85;79.03;99940.13;5077052;28;20128;-55
2022/01/06 01:25:03;;;;;;;9.75;4.53;;;;;;;4.85;79.22;99932.41;5077298;28;20513;-55
2022/01/06 01:27:35;;;;;;;11.68;4.10;;;;;;;4.83;79.06;99934.06;5058845;28;20492;-55
2022/01/06 01:30:09;;;;;;;10.00;4.00;;;;;;;4.84;79.41;99928.09;5076962;28;20101;-55
2022/01/06 01:32:39;;;;;;;10.40;4.10;;;;;;;4.83;79.07;99941.75;5075474;28;20045;-56
2022/01/06 01:35:08;;;;;;;15.27;4.47;;;;;;;4.83;79.15;99934.06;5075865;28;20480;-55
2022/01/06 01:37:36;;;;;;;11.82;4.63;;;;;;;4.80;78.96;99933.06;5076581;28;20131;-55
2022/01/06 01:40:08;;;;;;;10.65;4.30;;;;;;;4.79;79.27;99932.19;5058942;28;20032;-55
2022/01/06 01:42:36;;;;;;;6.38;3.53;;;;;;;4.80;79.53;99941.63;5058867;28;20381;-55
2022/01/06 01:45:04;;;;;;;10.55;3.42;;;;;;;4.78;79.63;99938.13;5058361;28;20488;-56
2022/01/06 01:47:41;;;;;;;10.98;4.35;;;;;;;4.79;79.36;99949.28;5075106;28;20048;-55
2022/01/06 01:50:15;;;;;;;14.52;4.65;;;;;;;4.80;78.87;99957.03;5075418;28;20042;-55
2022/01/06 01:52:44;;;;;;;14.65;4.50;;;;;;;4.80;79.36;99953.63;5076672;28;20044;-55
2022/01/06 01:55:12;;;;;;;7.85;2.95;;;;;;;4.80;79.69;99957.03;5058472;28;20128;-55
2022/01/06 01:57:42;;;;;;;9.10;4.57;;;;;;;4.80;79.39;99962.19;5058344;28;20040;-55
2022/01/06 02:00:11;;;;;;;11.00;4.22;;;;;;;4.78;79.08;99953.53;5075691;28;20039;-55
2022/01/06 02:02:40;;;;;;;11.57;3.90;;;;;;;4.79;79.11;99949.28;5076302;28;20403;-55
2022/01/06 02:05:08;;;;;;;7.55;4.50;;;;;;;4.79;79.13;99955.28;5058339;28;20029;-55
2022/01/06 02:07:41;;;;;;;10.00;4.28;;;;;;;4.78;79.05;99950.13;5076183;28;20426;-55
2022/01/06 02:10:10;;;;;;;15.43;4.80;;;;;;;4.79;78.70;99960.44;5075254;28;20058;-55
2022/01/06 02:12:41;;;;;;;7.28;4.32;;;;;;;4.81;79.21;99963.06;5075338;28;20072;-55
2022/01/06 02:15:10;;;;;;;9.63;4.18;;;;;;;4.79;79.41;99962.13;5058568;28;20033;-55
2022/01/06 02:17:39;;;;;;;11.60;3.97;;;;;;;4.80;79.41;99974.16;5075026;28;20052;-55
2022/01/06 02:20:10;;;;;;;15.55;4.90;;;;;;;4.79;79.14;99972.41;5057892;28;20033;-55
2022/01/06 02:22:39;;;;;;;13.95;4.57;;;;;;;4.80;79.05;99975.03;5058152;28;20048;-55
2022/01/06 02:25:17;;;;;;;9.95;4.35;;;;;;;4.80;78.83;99975.03;5074574;28;20033;-55
2022/01/06 02:27:45;;;;;;;10.45;4.30;;;;;;;4.79;78.97;99972.41;5076110;28;20388;-55
2022/01/06 02:30:16;;;;;;;12.73;6.25;;;;;;;4.79;79.36;99974.97;5058157;28;20044;-55
2022/01/06 02:32:44;;;;;;;11.00;4.63;;;;;;;4.80;79.47;99976.72;5074410;28;20033;-56
2022/01/06 02:35:12;;;;;;;16.33;4.45;;;;;;;4.79;79.43;99972.41;5074597;28;20546;-55
2022/01/06 02:37:41;;;;;;;18.65;4.32;;;;;;;4.79;79.07;99974.97;5057203;28;20123;-55
2022/01/06 02:40:13;;;;;;;6.05;3.22;;;;;;;4.80;79.11;99969.88;5075572;28;20511;-55
2022/01/06 02:42:44;;;;;;;7.97;3.95;;;;;;;4.79;79.33;99973.25;5075483;28;20045;-55
2022/01/06 02:45:12;;;;;;;11.30;3.50;;;;;;;4.77;79.09;99972.31;5075490;28;20032;-56
2022/01/06 02:47:41;;;;;;;13.40;4.60;;;;;;;4.78;79.03;99971.50;5075243;28;20037;-55
2022/01/06 02:50:11;;;;;;;9.90;4.35;;;;;;;4.77;79.14;99969.75;5074217;28;20541;-55
2022/01/06 02:52:39;;;;;;;13.35;4.35;;;;;;;4.77;78.72;99969.75;5075630;28;20064;-55
2022/01/06 02:55:09;;;;;;;11.43;4.30;;;;;;;4.77;79.17;99971.47;5075166;28;20060;-55
2022/01/06 02:57:36;;;;;;;8.27;3.45;;;;;;;4.76;79.56;99969.72;5057499;28;20045;-54
2022/01/06 03:00:07;;;;;;;8.82;4.60;;;;;;;4.77;79.12;99969.75;5074039;28;20036;-55
2022/01/06 03:02:32;;;;;;;9.75;4.82;;;;;;;4.77;79.24;99974.91;5074654;28;20124;-55
2022/01/06 03:04:57;;;;;;;10.27;4.75;;;;;;;4.77;79.67;99974.91;5074967;28;20128;-55
2022/01/06 03:07:26;;;;;;;12.65;4.10;;;;;;;4.75;79.14;99975.66;5074974;28;20194;-55
2022/01/06 03:09:58;;;;;;;16.15;4.00;;;;;;;4.76;79.65;99977.41;5074951;28;20090;-55
2022/01/06 03:14:56;;;;;;;14.15;4.15;;;;;;;4.73;79.15;99976.47;5074900;28;20102;-55
2022/01/06 03:17:24;;;;;;;11.90;3.90;;;;;;;4.75;79.13;99976.53;5074170;28;20066;-55
2022/01/06 03:19:54;;;;;;;7.47;4.30;;;;;;;4.75;79.21;99979.09;5075007;28;20043;-55
2022/01/06 03:22:19;;;;;;;14.52;4.20;;;;;;;4.77;79.32;99985.16;5057159;28;20032;-55
2022/01/06 03:24:47;;;;;;;13.32;4.45;;;;;;;4.77;79.63;99992.88;5073523;28;20115;-55
2022/01/06 03:27:13;;;;;;;13.45;4.47;;;;;;;4.78;79.42;99989.50;5074708;28;20123;-55
2022/01/06 03:29:41;;;;;;;15.48;5.20;;;;;;;4.78;79.33;99992.06;5074129;28;20032;-55
2022/01/06 03:32:09;;;;;;;10.20;3.60;;;;;;;4.78;79.43;99996.34;5073098;28;20488;-55
2022/01/06 03:34:38;;;;;;;18.00;4.57;;;;;;;4.77;79.88;99997.16;5074361;28;20041;-55
2022/01/06 03:37:06;;;;;;;9.00;4.00;;;;;;;4.77;79.89;99997.16;5074654;28;20036;-55
2022/01/06 03:39:32;;;;;;;17.38;4.80;;;;;;;4.78;79.55;100010.03;5056825;28;20411;-55
2022/01/06 03:42:03;;;;;;;8.65;3.85;;;;;;;4.79;79.01;100010.94;5072769;28;20037;-55
2022/01/06 03:44:33;;;;;;;16.73;4.15;;;;;;;4.75;79.25;100019.31;5057411;28;20387;-55
2022/01/06 03:47:02;;;;;;;21.27;6.47;;;;;;;4.74;79.44;100013.31;5073946;28;20044;-55
2022/01/06 03:49:27;;;;;;;11.63;4.03;;;;;;;4.73;79.04;100012.44;5056192;28;20560;-54
2022/01/06 03:51:58;;;;;;;12.30;4.22;;;;;;;4.75;79.49;100021.88;5074240;28;20036;-55
2022/01/06 03:54:24;;;;;;;11.10;5.50;;;;;;;4.73;79.05;100020.13;5056405;28;20040;-55
2022/01/06 03:56:52;;;;;;;13.25;4.97;;;;;;;4.75;79.22;100025.31;5072878;28;20036;-55
2022/01/06 03:59:21;;;;;;;10.98;4.18;;;;;;;4.74;78.69;100018.47;5057081;28;20090;-55
2022/01/06 04:01:49;;;;;;;15.90;5.07;;;;;;;4.75;78.99;100020.19;5072916;28;20048;-54
2022/01/06 04:04:17;;;;;;;10.57;4.07;;;;;;;4.76;79.41;100027.06;5073948;28;20041;-55
2022/01/06 04:06:43;;;;;;;15.55;5.05;;;;;;;4.76;79.28;100028.78;5055957;28;20411;-55
2022/01/06 04:09:13;;;;;;;15.35;4.38;;;;;;;4.76;79.17;100029.63;5073963;28;20043;-55
2022/01/06 04:11:41;;;;;;;13.73;5.10;;;;;;;4.77;79.41;100033.09;5073878;28;20028;-55
2022/01/06 04:14:12;;;;;;;12.18;4.30;;;;;;;4.77;79.04;100027.97;5057044;28;20403;-55
2022/01/06 04:16:39;;;;;;;10.40;5.18;;;;;;;4.77;79.24;100026.25;5073984;28;20032;-55
2022/01/06 04:19:06;;;;;;;15.27;5.15;;;;;;;4.77;79.71;100025.38;5055814;28;20372;-55
2022/01/06 04:21:36;;;;;;;10.73;5.03;;;;;;;4.78;79.31;100027.16;5072547;28;20444;-54
2022/01/06 04:24:04;;;;;;;12.38;4.38;;;;;;;4.77;79.59;100028.81;5072510;28;20028;-55
2022/01/06 04:26:31;;;;;;;10.10;4.30;;;;;;;4.78;78.70;100045.13;5073633;28;20032;-55
2022/01/06 04:28:56;;;;;;;9.93;4.32;;;;;;;4.78;79.38;100038.28;5055667;28;20051;-55
2022/01/06 04:31:22;;;;;;;12.70;5.07;;;;;;;4.78;79.85;100037.41;5072673;28;20044;-55
2022/01/06 04:33:52;;;;;;;16.80;4.85;;;;;;;4.77;79.81;100049.38;5073620;28;20119;-55
2022/01/06 04:36:25;;;;;;;12.63;4.22;;;;;;;4.78;79.58;100047.69;5055291;28;20047;-55
2022/01/06 04:38:56;;;;;;;9.68;3.83;;;;;;;4.77;79.20;100056.19;5055353;28;20507;-55
2022/01/06 04:41:22;;;;;;;7.97;4.05;;;;;;;4.76;79.67;100052.75;5055758;28;20098;-55
2022/01/06 04:43:49;;;;;;;8.52;4.15;;;;;;;4.75;79.93;100057.84;5073339;28;20033;-55
2022/01/06 04:46:20;;;;;;;12.27;4.88;;;;;;;4.75;79.52;100057.84;5073545;28;20052;-55
2022/01/06 04:48:49;;;;;;;6.63;3.55;;;;;;;4.74;79.66;100054.41;5073758;28;20369;-55
2022/01/06 04:51:17;;;;;;;12.00;3.80;;;;;;;4.74;79.98;100064.66;5073361;28;20078;-54
2022/01/06 04:53:45;;;;;;;11.02;5.25;;;;;;;4.73;79.03;100070.63;5072107;28;20143;-55
2022/01/06 04:56:16;;;;;;;12.27;4.43;;;;;;;4.73;79.57;100073.19;5055444;28;20115;-55
2022/01/06 04:58:44;;;;;;;12.38;3.85;;;;;;;4.72;79.47;100067.16;5055810;28;20044;-55
2022/01/06 05:01:13;;;;;;;10.10;4.72;;;;;;;4.71;79.41;100067.97;5071512;28;20064;-56
2022/01/06 05:03:43;;;;;;;12.25;5.30;;;;;;;4.72;79.60;100066.28;5071816;28;20039;-56
2022/01/06 05:06:09;;;;;;;6.80;4.05;;;;;;;4.72;79.67;100069.72;5055754;28;20135;-55
2022/01/06 05:08:34;;;;;;;12.30;4.38;;;;;;;4.72;79.25;100066.28;5073226;28;20505;-54
2022/01/06 05:11:02;;;;;;;12.90;4.32;;;;;;;4.71;79.54;100072.25;5071902;28;20033;-55
2022/01/06 05:13:28;;;;;;;9.90;4.07;;;;;;;4.72;79.80;100079.13;5073278;28;20449;-56
2022/01/06 05:15:53;;;;;;;12.77;4.30;;;;;;;4.73;79.23;100086.03;5072988;28;20036;-55
2022/01/06 05:18:21;;;;;;;10.25;4.65;;;;;;;4.73;79.59;100086.88;5072903;28;20036;-55
2022/01/06 05:20:46;;;;;;;9.98;4.93;;;;;;;4.72;79.93;100085.13;5072781;28;20123;-54
2022/01/06 05:23:13;;;;;;;17.15;5.57;;;;;;;4.72;79.39;100091.97;5071981;28;20167;-55
2022/01/06 05:25:39;;;;;;;12.77;4.45;;;;;;;4.73;79.68;100088.59;5055381;28;20036;-55
2022/01/06 05:28:07;;;;;;;10.15;5.15;;;;;;;4.73;79.64;100080.91;5072936;28;20028;-55
2022/01/06 05:30:34;;;;;;;11.25;3.78;;;;;;;4.71;79.51;100079.94;5054674;28;20560;-55
2022/01/06 05:32:59;;;;;;;13.63;4.50;;;;;;;4.72;80.14;100081.72;5073201;28;20167;-55
2022/01/06 05:35:28;;;;;;;13.82;4.75;;;;;;;4.72;79.32;100086.84;5073219;28;20078;-55
2022/01/06 05:37:53;;;;;;;9.98;4.95;;;;;;;4.71;79.33;100096.22;5072776;28;20446;-55
2022/01/06 05:40:19;;;;;;;9.48;5.88;;;;;;;4.71;79.38;100091.09;5072830;28;20047;-55
2022/01/06 05:42:48;;;;;;;7.90;4.25;;;;;;;4.71;79.38;100090.22;5073044;28;20086;-54
2022/01/06 05:45:15;;;;;;;14.48;5.47;;;;;;;4.71;79.41;100092.78;5072760;28;20041;-55
2022/01/06 05:47:41;;;;;;;11.00;5.95;;;;;;;4.70;79.64;100091.91;5072988;28;20041;-55
2022/01/06 05:50:08;;;;;;;18.98;5.63;;;;;;;4.70;79.71;100089.31;5076567;28;20377;-55
2022/01/06 05:52:34;;;;;;;15.85;5.78;;;;;;;4.69;79.61;100095.28;5074968;28;20040;-54
2022/01/06 05:55:00;;;;;;;13.20;4.88;;;;;;;4.69;79.71;100087.56;5075290;28;20387;-55
2022/01/06 05:57:25;;;;;;;10.13;5.18;;;;;;;4.69;79.24;100094.41;5058795;28;20044;-55
2022/01/06 05:59:51;;;;;;;10.52;5.22;;;;;;;4.69;79.33;100095.28;5076460;28;20041;-55
2022/01/06 06:02:16;;;;;;;11.98;5.55;;;;;;;4.68;79.84;100090.09;5076082;28;20127;-55
2022/01/06 06:04:42;;;;;;;11.27;4.80;;;;;;;4.68;79.65;100106.34;5076429;28;20024;-55
2022/01/06 06:07:07;;;;;;;12.43;4.72;;;;;;;4.68;79.99;100102.94;5076165;28;20094;-54
2022/01/06 06:09:33;;;;;;;8.43;4.97;;;;;;;4.70;79.67;100111.56;5076080;28;20488;-55
2022/01/06 06:11:58;;;;;;;12.48;5.28;;;;;;;4.70;79.52;100117.56;5076180;28;20037;-54
2022/01/06 06:14:23;;;;;;;13.55;6.18;;;;;;;4.70;79.45;100122.69;5075042;28;20076;-55
2022/01/06 06:16:49;;;;;;;9.60;4.30;;;;;;;4.71;79.70;100127.03;5075554;28;20415;-56
2022/01/06 06:19:14;;;;;;;15.05;5.15;;;;;;;4.72;79.78;100120.22;5076014;28;20036;-55
2022/01/06 06:21:40;;;;;;;14.38;5.32;;;;;;;4.71;79.77;100121.03;5074998;28;20480;-55
2022/01/06 06:24:08;;;;;;;11.63;4.93;;;;;;;4.71;79.83;100121.03;5074721;28;20032;-55
2022/01/06 06:26:33;;;;;;;12.75;5.60;;;;;;;4.72;79.48;100128.78;5075994;28;20039;-55
2022/01/06 06:28:59;;;;;;;7.85;4.80;;;;;;;4.71;79.79;100132.16;5075800;28;20394;-54
2022/01/06 06:31:24;;;;;;;8.15;5.20;;;;;;;4.72;79.74;100135.63;5075792;28;20032;-55
2022/01/06 06:33:50;;;;;;;9.63;4.78;;;;;;;4.72;80.12;100138.19;5075266;28;20029;-55
2022/01/06 06:36:15;;;;;;;10.20;5.45;;;;;;;4.71;79.69;100134.72;5075523;28;20071;-55
2022/01/06 06:38:41;;;;;;;10.65;4.78;;;;;;;4.71;79.78;100142.44;5075317;28;20090;-55
2022/01/06 06:41:06;;;;;;;11.57;5.32;;;;;;;4.69;80.15;100149.19;5075666;28;20036;-55
2022/01/06 06:43:34;;;;;;;11.38;5.75;;;;;;;4.71;79.61;100146.72;5075906;28;20502;-55
2022/01/06 06:45:59;;;;;;;10.88;5.47;;;;;;;4.71;79.78;100146.72;5057608;28;20033;-55
2022/01/06 06:48:25;;;;;;;10.40;5.13;;;;;;;4.70;79.83;100147.53;5075456;28;20059;-55
2022/01/06 06:50:51;;;;;;;9.80;5.45;;;;;;;4.70;79.45;100150.09;5074454;28;20028;-55
2022/01/06 06:53:16;;;;;;;14.05;5.68;;;;;;;4.69;79.62;100154.31;5075326;28;20032;-56
2022/01/06 06:55:43;;;;;;;12.63;4.80;;;;;;;4.68;79.43;100157.72;5074538;28;20033;-55
2022/01/06 06:58:08;;;;;;;11.50;5.20;;;;;;;4.68;79.88;100156.84;5075175;28;20039;-55
2022/01/06 07:00:33;;;;;;;10.43;5.25;;;;;;;4.67;79.13;100161.09;5074691;28;20115;-54
2022/01/06 07:02:59;;;;;;;11.75;4.93;;;;;;;4.67;79.56;100161.09;5074015;28;20075;-55
2022/01/06 07:05:24;;;;;;;15.73;5.72;;;;;;;4.67;79.79;100165.34;5057634;28;20502;-55
2022/01/06 07:07:50;;;;;;;9.07;4.97;;;;;;;4.67;79.71;100163.66;5057192;28;20391;-55
2022/01/06 07:10:15;;;;;;;7.03;4.70;;;;;;;4.68;79.97;100169.69;5057336;28;20102;-55
2022/01/06 07:12:46;;;;;;;10.65;5.22;;;;;;;4.68;79.33;100169.69;5073848;28;20028;-55
2022/01/06 07:15:13;;;;;;;5.95;4.85;;;;;;;4.67;79.52;100176.50;5074609;28;20048;-57
2022/01/06 07:17:40;;;;;;;8.00;5.20;;;;;;;4.68;80.12;100177.38;5056933;28;20067;-55
2022/01/06 07:20:09;;;;;;;7.38;5.22;;;;;;;4.68;79.45;100187.66;5056831;28;20043;-55
2022/01/06 07:22:37;;;;;;;12.00;5.85;;;;;;;4.69;79.81;100184.28;5056770;28;20085;-55
2022/01/06 07:25:03;;;;;;;10.95;5.63;;;;;;;4.68;79.49;100192.78;5074565;28;20067;-55
2022/01/06 07:27:29;;;;;;;8.50;6.03;;;;;;;4.68;79.75;100197.94;5056955;28;20575;-55
2022/01/06 07:29:57;;;;;;;9.32;5.57;;;;;;;4.68;80.40;100203.91;5074703;28;20064;-55
2022/01/06 07:32:25;;;;;;;10.45;6.65;;;;;;;4.69;79.84;100204.81;5074539;28;20037;-55
2022/01/06 07:34:53;;;;;;;12.63;6.10;;;;;;;4.67;80.09;100202.16;5074805;28;20093;-55
2022/01/06 07:37:18;;;;;;;9.40;5.13;;;;;;;4.68;79.80;100215.91;5073245;28;20043;-55
2022/01/06 07:39:46;;;;;;;12.05;4.97;;;;;;;4.68;80.01;100211.63;5074462;28;20392;-55
2022/01/06 07:42:14;;;;;;;8.48;5.20;;;;;;;4.68;79.49;100210.75;5074412;28;20481;-55
2022/01/06 07:44:42;;;;;;;12.02;5.18;;;;;;;4.67;80.16;100216.72;5074250;28;20032;-55
2022/01/06 07:47:08;;;;;;;8.95;5.10;;;;;;;4.67;80.13;100214.13;5073142;28;20037;-55
2022/01/06 07:49:37;;;;;;;11.68;6.15;;;;;;;4.67;80.02;100220.13;5074230;28;20039;-55
2022/01/06 07:52:08;;;;;;;12.27;5.03;;;;;;;4.67;79.90;100222.72;5074268;28;20036;-55
2022/01/06 07:54:33;;;;;;;14.93;6.10;;;;;;;4.67;79.50;100229.53;5074292;28;20534;-55
2022/01/06 07:57:03;;;;;;;10.80;6.30;;;;;;;4.67;80.04;100224.41;5074195;28;20083;-55
2022/01/06 07:59:32;;;;;;;11.32;5.63;;;;;;;4.66;79.59;100231.25;5074010;28;20037;-55
2022/01/06 08:01:57;;;;;;;12.68;6.07;;;;;;;4.66;79.87;100228.69;5056086;28;20411;-55
2022/01/06 08:04:26;;;;;;;8.18;5.63;;;;;;;4.66;80.09;100230.34;5073951;28;20086;-55
2022/01/06 08:06:54;;;;;;;11.25;6.35;;;;;;;4.66;79.84;100227.78;5073879;28;20376;-55
2022/01/06 08:09:22;;;;;;;9.98;5.50;;;;;;;4.66;79.62;100230.34;5073485;28;20037;-55
2022/01/06 08:11:48;;;;;;;11.88;5.22;;;;;;;4.66;79.70;100230.34;5055132;28;20127;-58
2022/01/06 08:14:15;;;;;;;12.02;5.38;;;;;;;4.66;80.12;100238.94;5073642;28;20068;-55
2022/01/06 08:16:41;;;;;;;14.02;5.18;;;;;;;4.66;80.02;100238.94;5072389;28;20487;-55
2022/01/06 08:19:06;;;;;;;10.05;5.78;;;;;;;4.66;79.62;100240.63;5073597;28;20036;-55
2022/01/06 08:21:34;;;;;;;7.53;4.70;;;;;;;4.66;79.79;100240.63;5073725;28;20037;-55
2022/01/06 08:23:59;;;;;;;11.65;5.63;;;;;;;4.66;79.87;100238.06;5072570;28;20492;-55
2022/01/06 08:26:27;;;;;;;13.00;5.80;;;;;;;4.65;80.13;100236.31;5072137;28;20521;-55
2022/01/06 08:28:55;;;;;;;10.40;5.40;;;;;;;4.66;80.17;100235.50;5073680;28;20063;-55
2022/01/06 08:31:21;;;;;;;9.80;5.50;;;;;;;4.64;79.72;100243.13;5073272;28;20445;-55
2022/01/06 08:33:46;;;;;;;14.45;6.80;;;;;;;4.65;79.98;100244.00;5073629;28;20123;-55
2022/01/06 08:36:13;;;;;;;12.27;5.47;;;;;;;4.64;79.32;100252.50;5072155;28;20032;-55
2022/01/06 08:38:38;;;;;;;11.27;6.70;;;;;;;4.65;79.99;100249.13;5055569;28;20121;-55
2022/01/06 08:41:03;;;;;;;12.65;5.53;;;;;;;4.65;80.01;100261.97;5073375;28;20064;-55
2022/01/06 08:43:29;;;;;;;9.98;6.43;;;;;;;4.63;80.06;100255.88;5072298;28;20403;-56
2022/01/06 08:45:56;;;;;;;12.65;6.15;;;;;;;4.64;80.18;100255.97;5072202;28;20093;-55
2022/01/06 08:48:23;;;;;;;11.20;6.00;;;;;;;4.64;80.21;100262.78;5055432;28;20036;-55
2022/01/06 08:50:51;;;;;;;11.25;6.60;;;;;;;4.64;80.00;100263.69;5055331;28;20469;-55
2022/01/06 08:53:20;;;;;;;13.27;6.60;;;;;;;4.62;80.02;100259.28;5073412;28;20059;-54
2022/01/06 08:55:47;;;;;;;12.77;6.88;;;;;;;4.62;79.72;100266.97;5073131;28;20120;-55
2022/01/06 08:58:15;;;;;;;10.85;6.18;;;;;;;4.61;79.81;100268.69;5072362;28;20033;-55
2022/01/06 09:00:45;;;;;;;13.02;6.32;;;;;;;4.61;79.60;100262.66;5055374;28;20050;-55
2022/01/06 09:03:11;;;;;;;10.82;6.38;;;;;;;4.61;80.08;100260.06;5073277;28;20053;-55
2022/01/06 09:05:40;;;;;;;13.27;7.22;;;;;;;4.61;79.67;100265.22;5055117;28;20487;-54
2022/01/06 09:08:09;;;;;;;10.95;6.57;;;;;;;4.60;80.23;100271.16;5055133;28;20076;-55
2022/01/06 09:10:36;;;;;;;15.90;7.93;;;;;;;4.59;79.77;100272.84;5055205;28;20131;-55
2022/01/06 09:13:01;;;;;;;11.80;7.32;;;;;;;4.60;80.09;100276.28;5073256;28;20187;-55
2022/01/06 09:15:27;;;;;;;13.90;7.40;;;;;;;4.59;80.08;100270.28;5073170;28;20104;-54
2022/01/06 09:17:59;;;;;;;11.80;6.80;;;;;;;4.57;80.02;100272.81;5073174;28;20040;-55
2022/01/06 09:20:24;;;;;;;13.18;6.25;;;;;;;4.57;80.07;100280.50;5073163;28;20119;-54
2022/01/06 09:22:52;;;;;;;11.32;6.30;;;;;;;4.57;80.00;100280.50;5075720;28;20115;-55
2022/01/06 09:25:18;;;;;;;12.88;7.43;;;;;;;4.56;79.87;100280.41;5058685;28;20058;-55
2022/01/06 09:27:43;;;;;;;17.50;7.80;;;;;;;4.56;80.26;100281.31;5077245;28;20120;-55
2022/01/06 09:30:12;;;;;;;14.20;7.47;;;;;;;4.56;80.38;100288.13;5076103;28;20503;-55
2022/01/06 09:32:43;;;;;;;12.75;7.10;;;;;;;4.55;79.49;100287.25;5077050;28;20166;-55
2022/01/06 09:35:11;;;;;;;12.90;7.13;;;;;;;4.54;80.54;100285.50;5076927;28;20048;-55
2022/01/06 09:37:40;;;;;;;15.65;7.85;;;;;;;4.54;79.88;100285.50;5076875;28;20032;-55
2022/01/06 09:40:08;;;;;;;13.55;7.45;;;;;;;4.53;80.07;100293.13;5076733;28;20044;-55
2022/01/06 09:42:34;;;;;;;19.23;7.93;;;;;;;4.52;80.10;100299.94;5076534;28;20029;-55
2022/01/06 09:45:00;;;;;;;18.80;7.68;;;;;;;4.51;79.47;100299.91;5058744;28;20043;-55
2022/01/06 09:47:27;;;;;;;14.77;7.22;;;;;;;4.49;79.77;100299.81;5076702;28;20048;-55
2022/01/06 09:49:53;;;;;;;16.48;7.10;;;;;;;4.50;80.24;100310.97;5058731;28;20086;-55
2022/01/06 09:52:21;;;;;;;20.65;6.93;;;;;;;4.50;80.00;100313.53;5074924;28;20036;-55
2022/01/06 09:54:47;;;;;;;15.30;8.93;;;;;;;4.49;79.81;100315.22;5059283;28;20032;-55
2022/01/06 09:57:14;;;;;;;15.68;7.38;;;;;;;4.50;79.68;100311.84;5058880;28;20029;-55
2022/01/06 09:59:43;;;;;;;18.48;7.68;;;;;;;4.50;80.63;100313.53;5076290;28;20041;-55
2022/01/06 10:02:20;;;;;;;20.00;8.18;;;;;;;4.49;80.12;100315.22;5058591;28;20082;-55
2022/01/06 10:04:57;;;;;;;17.95;7.60;;;;;;;4.46;80.04;100304.78;5058370;28;20040;-55
2022/01/06 10:07:26;;;;;;;19.98;6.70;;;;;;;4.48;80.10;100312.59;5077069;28;20041;-55
2022/01/06 10:09:51;;;;;;;20.60;8.02;;;;;;;4.48;79.44;100312.59;5058587;28;20086;-55
2022/01/06 10:12:19;;;;;;;23.35;8.55;;;;;;;4.48;79.40;100318.59;5076227;28;20033;-55
2022/01/06 10:14:49;;;;;;;14.07;6.97;;;;;;;4.48;80.63;100317.72;5075241;28;20032;-55
2022/01/06 10:17:38;;;;;;;17.08;7.45;;;;;;;4.47;79.89;100314.25;5057930;28;20043;-56
2022/01/06 10:20:15;;;;;;;22.55;7.30;;;;;;;4.47;80.14;100315.97;5076305;28;20032;-55
2022/01/06 10:22:58;;;;;;;13.60;7.65;;;;;;;4.48;79.30;100315.16;5057905;28;20488;-56
2022/01/06 10:25:31;;;;;;;17.02;6.75;;;;;;;4.46;79.83;100309.06;5076013;28;20036;-55
2022/01/06 10:27:59;;;;;;;15.52;6.80;;;;;;;4.46;80.11;100307.38;5076142;28;20388;-55
2022/01/06 10:30:29;;;;;;;20.98;8.10;;;;;;;4.44;79.72;100308.97;5075559;28;20059;-55
2022/01/06 10:33:00;;;;;;;17.67;8.07;;;;;;;4.45;80.26;100303.03;5074618;28;20044;-55
2022/01/06 10:35:28;;;;;;;20.45;7.15;;;;;;;4.47;80.06;100310.81;5075220;28;20495;-56
2022/01/06 10:37:54;;;;;;;17.88;7.03;;;;;;;4.47;80.24;100303.13;5075660;28;20090;-55
2022/01/06 10:40:26;;;;;;;19.98;7.78;;;;;;;4.48;80.28;100304.88;5075469;28;20041;-55
2022/01/06 10:42:54;;;;;;;17.23;6.65;;;;;;;4.49;79.76;100299.81;5075705;28;20123;-55
2022/01/06 10:45:25;;;;;;;12.73;7.10;;;;;;;4.51;80.14;100298.19;5074377;28;20106;-55
2022/01/06 10:47:59;;;;;;;17.95;7.00;;;;;;;4.53;79.75;100301.72;5057568;28;20487;-55
2022/01/06 10:50:25;;;;;;;16.60;7.15;;;;;;;4.53;80.59;100299.16;5075546;28;20032;-55
2022/01/06 10:52:53;;;;;;;11.98;6.28;;;;;;;4.54;79.79;100302.56;5074069;28;20032;-55
2022/01/06 10:55:30;;;;;;;19.52;6.93;;;;;;;4.55;80.25;100294.97;5058487;28;20028;-55
2022/01/06 10:58:03;;;;;;;19.88;7.05;;;;;;;4.55;79.89;100292.38;5075500;28;20040;-55
2022/01/06 11:00:34;;;;;;;16.60;7.60;;;;;;;4.58;79.18;100294.22;5057695;28;20078;-55
2022/01/06 11:03:21;;;;;;;13.27;7.30;;;;;;;4.59;79.71;100302.81;5073963;28;20040;-55
2022/01/06 11:05:58;;;;;;;16.98;7.93;;;;;;;4.60;80.12;100295.16;5058032;28;20064;-55
2022/01/06 11:08:28;;;;;;;23.65;8.90;;;;;;;4.60;80.09;100290.03;5075382;28;20063;-55
2022/01/06 11:13:44;;;;;;;22.98;7.63;;;;;;;4.65;79.56;100288.53;5073426;28;20041;-55
2022/01/06 11:16:15;;;;;;;26.20;8.75;;;;;;;4.67;80.29;100289.47;5074454;28;20033;-55
2022/01/06 11:18:47;;;;;;;18.88;8.32;;;;;;;4.80;79.81;100290.88;5074487;28;20037;-54
2022/01/06 11:21:15;;;;;;;21.48;8.10;;;;;;;4.91;80.20;100288.78;5056693;28;20565;-56
2022/01/06 11:23:41;;;;;;;24.88;7.85;;;;;;;4.90;79.53;100299.88;5056627;28;20549;-55
2022/01/06 11:26:13;;;;;;;21.52;8.90;;;;;;;4.87;79.54;100298.06;5056826;28;20032;-55
2022/01/06 11:28:53;;;;;;;19.70;9.15;;;;;;;4.84;79.72;100307.28;5056721;28;20040;-55
2022/01/06 11:31:24;;;;;;;24.88;8.77;;;;;;;4.84;79.68;100291.88;5073049;28;20033;-55
2022/01/06 11:33:52;;;;;;;20.15;8.20;;;;;;;4.86;80.36;100297.97;5072838;28;20149;-55
2022/01/06 11:36:21;;;;;;;15.70;7.43;;;;;;;4.85;80.44;100296.22;5074165;28;20060;-55
2022/01/06 11:38:48;;;;;;;17.42;7.43;;;;;;;4.86;79.90;100296.28;5056449;28;20041;-56
2022/01/06 11:41:16;;;;;;;19.33;7.85;;;;;;;4.86;79.52;100293.72;5074993;28;20502;-56
2022/01/06 11:43:45;;;;;;;17.30;7.90;;;;;;;4.87;79.41;100287.78;5057115;28;20506;-56
2022/01/06 11:46:11;;;;;;;22.38;7.45;;;;;;;4.87;80.34;100295.50;5055562;28;20131;-55
2022/01/06 11:48:52;;;;;;;23.98;8.30;;;;;;;4.87;79.96;100295.50;5073097;28;20112;-55